createdAt,value
2022-12-03T00:00:52.440Z,47.55
2022-12-03T00:03:42.455Z,46.65
2022-12-03T00:06:34.728Z,45.08
2022-12-03T00:09:24.507Z,47.40
2022-12-03T00:12:13.958Z,45.47
2022-12-03T00:15:10.696Z,43.50
2022-12-03T00:18:00.831Z,45.85
2022-12-03T00:20:50.385Z,45.08
2022-12-03T00:23:42.343Z,43.65
2022-12-03T00:26:32.720Z,40.65
2022-12-03T00:29:22.134Z,40.95
2022-12-03T00:32:11.952Z,41.83
2022-12-03T00:35:01.415Z,40.90
2022-12-03T00:37:51.583Z,40.88
2022-12-03T00:40:41.049Z,40.78
2022-12-03T00:43:30.501Z,40.60
2022-12-03T00:46:21.772Z,38.78
2022-12-03T00:49:11.489Z,36.97
2022-12-03T00:52:00.913Z,38.70
2022-12-03T00:54:50.723Z,38.20
2022-12-03T00:57:40.317Z,38.42
2022-12-03T01:00:30.186Z,37.22
2022-12-03T01:03:24.104Z,35.33
2022-12-03T01:06:13.526Z,36.45
2022-12-03T01:09:03.226Z,34.70
2022-12-03T01:11:52.636Z,33.45
2022-12-03T01:14:42.249Z,33.75
2022-12-03T01:17:31.980Z,33.92
2022-12-03T01:20:23.117Z,34.58
2022-12-03T01:23:12.606Z,32.80
2022-12-03T01:26:02.035Z,31.08
2022-12-03T01:28:51.942Z,33.05
2022-12-03T01:31:59.510Z,32.75
2022-12-03T01:34:51.535Z,29.77
2022-12-03T01:37:41.290Z,31.00
2022-12-03T01:40:30.891Z,32.25
2022-12-03T01:43:20.292Z,29.42
2022-12-03T01:46:13.482Z,29.38
2022-12-03T01:49:03.426Z,28.92
2022-12-03T01:51:54.191Z,27.70
2022-12-03T01:54:59.444Z,28.52
2022-12-03T01:57:56.571Z,27.88
2022-12-03T02:00:46.052Z,27.88
2022-12-03T02:03:35.691Z,27.42
2022-12-03T02:06:29.680Z,27.25
2022-12-03T02:09:19.305Z,27.13
2022-12-03T02:12:09.060Z,26.13
2022-12-03T02:14:59.117Z,25.05
2022-12-03T02:17:48.852Z,24.17
2022-12-03T02:20:51.645Z,25.02
2022-12-03T02:24:04.287Z,23.67
2022-12-03T02:26:53.962Z,23.67
2022-12-03T02:29:43.330Z,24.42
2022-12-03T02:32:35.635Z,24.23
2022-12-03T02:35:31.639Z,23.45
2022-12-03T02:38:24.421Z,24.00
2022-12-03T02:41:38.845Z,22.85
2022-12-03T02:44:28.415Z,23.27
2022-12-03T02:47:18.032Z,22.65
2022-12-03T02:50:08.427Z,22.65
2022-12-03T02:53:00.374Z,22.15
2022-12-03T02:55:52.214Z,22.10
2022-12-03T02:58:43.706Z,20.13
2022-12-03T03:01:33.908Z,23.13
2022-12-03T03:04:25.887Z,19.98
2022-12-03T03:07:16.261Z,19.70
2022-12-03T03:10:08.044Z,19.63
2022-12-03T03:12:57.939Z,20.17
2022-12-03T03:15:47.828Z,19.52
2022-12-03T03:18:37.808Z,18.08
2022-12-03T03:21:27.596Z,18.30
2022-12-03T03:24:17.987Z,19.67
2022-12-03T03:27:11.437Z,18.50
2022-12-03T03:30:01.846Z,19.40
2022-12-03T03:32:51.746Z,18.80
2022-12-03T03:35:41.910Z,17.83
2022-12-03T03:38:32.846Z,17.45
2022-12-03T03:41:22.951Z,17.13
2022-12-03T03:44:12.619Z,17.52
2022-12-03T03:47:02.216Z,16.85
2022-12-03T03:49:52.058Z,17.50
2022-12-03T03:52:43.166Z,17.02
2022-12-03T03:55:33.636Z,16.52
2022-12-03T03:58:23.798Z,17.40
2022-12-03T04:01:15.528Z,16.63
2022-12-03T04:04:06.001Z,14.95
2022-12-03T04:06:56.786Z,16.52
2022-12-03T04:09:47.093Z,16.00
2022-12-03T04:12:54.998Z,15.40
2022-12-03T04:15:44.516Z,15.55
2022-12-03T04:18:45.931Z,15.23
2022-12-03T04:21:54.412Z,14.30
2022-12-03T04:24:44.606Z,12.98
2022-12-03T04:27:52.869Z,14.18
2022-12-03T04:30:42.564Z,13.60
2022-12-03T04:33:50.444Z,12.90
2022-12-03T04:36:40.482Z,13.55
2022-12-03T04:39:30.467Z,13.88
2022-12-03T04:42:20.187Z,13.52
2022-12-03T04:45:10.204Z,13.05
2022-12-03T04:48:00.102Z,12.40
2022-12-03T04:50:49.567Z,12.52
2022-12-03T04:53:44.760Z,13.10
2022-12-03T04:56:35.807Z,13.60
2022-12-03T04:59:25.362Z,12.23
2022-12-03T05:02:15.114Z,11.65
2022-12-03T05:05:04.941Z,11.77
2022-12-03T05:07:54.713Z,11.52
2022-12-03T05:10:44.357Z,12.27
2022-12-03T05:13:33.875Z,10.85
2022-12-03T05:16:23.669Z,10.80
2022-12-03T05:19:13.516Z,11.48
2022-12-03T05:22:03.249Z,12.30
2022-12-03T05:24:53.199Z,12.10
2022-12-03T05:27:43.098Z,11.23
2022-12-03T05:30:32.760Z,11.30
2022-12-03T05:33:22.349Z,10.52
2022-12-03T05:36:12.023Z,11.75
2022-12-03T05:39:01.515Z,9.45
2022-12-03T05:42:09.679Z,10.85
2022-12-03T05:44:59.361Z,9.98
2022-12-03T05:47:48.908Z,10.90
2022-12-03T05:50:40.579Z,10.10
2022-12-03T05:53:39.084Z,10.35
2022-12-03T05:56:28.449Z,9.75
2022-12-03T05:59:18.244Z,9.18
2022-12-03T06:02:08.035Z,9.68
2022-12-03T06:04:57.648Z,10.05
2022-12-03T06:07:49.074Z,10.43
2022-12-03T06:10:38.805Z,10.10
2022-12-03T06:13:28.611Z,9.02
2022-12-03T06:16:18.237Z,9.50
2022-12-03T06:19:07.573Z,9.95
2022-12-03T06:21:57.014Z,9.50
2022-12-03T06:24:47.301Z,8.98
2022-12-03T06:27:36.753Z,8.63
2022-12-03T06:30:26.354Z,9.02
2022-12-03T06:33:15.956Z,9.43
2022-12-03T06:36:05.836Z,9.38
2022-12-03T06:38:57.599Z,8.70
2022-12-03T06:41:47.200Z,8.80
2022-12-03T06:44:36.767Z,8.60
2022-12-03T06:47:26.366Z,9.15
2022-12-03T06:50:16.032Z,9.13
2022-12-03T06:53:05.643Z,8.50
2022-12-03T06:55:55.175Z,8.02
2022-12-03T06:58:44.852Z,8.13
2022-12-03T07:01:34.680Z,7.93
2022-12-03T07:04:24.112Z,8.13
2022-12-03T07:07:13.724Z,8.20
2022-12-03T07:10:03.954Z,7.95
2022-12-03T07:12:53.520Z,8.20
2022-12-03T07:15:43.030Z,8.30
2022-12-03T07:18:32.535Z,8.55
2022-12-03T07:21:22.047Z,7.70
2022-12-03T07:24:11.645Z,7.88
2022-12-03T07:27:01.055Z,8.55
2022-12-03T07:29:50.527Z,8.30
2022-12-03T07:32:40.277Z,8.07
2022-12-03T07:35:30.004Z,8.45
2022-12-03T07:38:19.385Z,8.68
2022-12-03T07:41:09.015Z,7.43
2022-12-03T07:43:58.467Z,8.50
2022-12-03T07:46:48.312Z,7.78
2022-12-03T07:49:38.186Z,8.40
2022-12-03T07:52:27.809Z,7.80
2022-12-03T07:55:17.346Z,6.80
2022-12-03T07:58:06.882Z,8.02
2022-12-03T08:00:56.630Z,8.27
2022-12-03T08:03:46.188Z,7.03
2022-12-03T08:06:35.688Z,8.02
2022-12-03T08:09:25.118Z,7.40
2022-12-03T08:12:20.730Z,7.47
2022-12-03T08:15:16.600Z,7.65
2022-12-03T08:18:20.063Z,7.72
2022-12-03T08:21:13.882Z,7.65
2022-12-03T08:24:17.927Z,8.38
2022-12-03T08:27:19.134Z,7.53
2022-12-03T08:30:09.626Z,7.38
2022-12-03T08:33:00.895Z,7.78
2022-12-03T08:35:52.431Z,8.02
2022-12-03T08:38:42.327Z,8.00
2022-12-03T08:41:58.291Z,7.63
2022-12-03T08:44:48.200Z,7.47
2022-12-03T08:47:37.719Z,7.35
2022-12-03T08:50:34.349Z,7.68
2022-12-03T08:53:37.172Z,7.20
2022-12-03T08:56:29.206Z,8.17
2022-12-03T08:59:32.066Z,7.30
2022-12-03T09:02:30.156Z,7.47
2022-12-03T09:05:31.969Z,7.68
2022-12-03T09:08:21.802Z,7.57
2022-12-03T09:11:11.255Z,7.72
2022-12-03T09:14:00.923Z,7.15
2022-12-03T09:16:53.208Z,7.78
2022-12-03T09:19:46.503Z,7.30
2022-12-03T09:25:25.202Z,7.30
2022-12-03T09:28:14.687Z,6.90
2022-12-03T09:31:04.431Z,7.50
2022-12-03T09:33:54.025Z,7.43
2022-12-03T09:36:46.116Z,7.68
2022-12-03T09:39:35.505Z,7.10
2022-12-03T09:42:26.031Z,7.50
2022-12-03T09:45:17.040Z,7.53
2022-12-03T09:48:06.832Z,8.02
2022-12-03T09:50:57.260Z,6.95
2022-12-03T09:53:47.779Z,7.45
2022-12-03T09:56:39.254Z,7.05
2022-12-03T09:59:35.899Z,7.05
2022-12-03T10:02:31.488Z,6.65
2022-12-03T10:05:23.709Z,7.22
2022-12-03T10:08:16.022Z,7.13
2022-12-03T10:11:05.695Z,7.30
2022-12-03T10:13:57.812Z,7.05
2022-12-03T10:16:48.031Z,6.50
2022-12-03T10:19:38.787Z,7.68
2022-12-03T10:22:28.360Z,7.25
2022-12-03T10:25:20.773Z,6.80
2022-12-03T10:28:10.204Z,7.25
2022-12-03T10:31:01.059Z,6.78
2022-12-03T10:33:59.798Z,6.72
2022-12-03T10:36:49.164Z,7.28
2022-12-03T10:40:09.453Z,6.60
2022-12-03T10:43:21.189Z,6.53
2022-12-03T10:46:21.314Z,6.93
2022-12-03T10:49:21.311Z,6.60
2022-12-03T10:52:26.145Z,7.88
2022-12-03T10:55:18.488Z,6.80
2022-12-03T10:58:31.542Z,6.72
2022-12-03T11:01:26.679Z,7.40
2022-12-03T11:04:26.041Z,6.68
2022-12-03T11:07:22.292Z,8.07
2022-12-03T11:10:20.856Z,7.18
2022-12-03T11:13:46.355Z,6.70
2022-12-03T11:16:42.986Z,7.25
2022-12-03T11:19:42.672Z,7.00
2022-12-03T11:22:47.672Z,7.13
2022-12-03T11:25:51.783Z,7.10
2022-12-03T11:28:48.584Z,7.18
2022-12-03T11:31:49.745Z,7.20
2022-12-03T11:34:43.409Z,7.07
2022-12-03T11:37:33.719Z,6.55
2022-12-03T11:40:24.500Z,7.18
2022-12-03T11:43:14.184Z,6.30
2022-12-03T11:46:11.003Z,6.57
2022-12-03T11:49:01.577Z,6.80
2022-12-03T11:51:51.693Z,6.90
2022-12-03T11:54:41.715Z,6.97
2022-12-03T11:57:35.380Z,7.32
2022-12-03T12:00:25.974Z,6.90
2022-12-03T12:03:24.327Z,7.65
2022-12-03T12:06:20.149Z,7.15
2022-12-03T12:09:13.560Z,6.63
2022-12-03T12:12:20.678Z,6.95
2022-12-03T12:15:36.032Z,7.07
2022-12-03T12:18:55.390Z,6.72
2022-12-03T12:21:51.156Z,6.85
2022-12-03T12:24:55.155Z,6.95
2022-12-03T12:27:50.501Z,6.45
2022-12-03T12:30:40.784Z,7.00
2022-12-03T12:33:30.497Z,6.68
2022-12-03T12:36:19.878Z,6.65
2022-12-03T12:39:17.316Z,6.72
2022-12-03T12:42:29.579Z,6.95
2022-12-03T12:45:22.352Z,5.88
2022-12-03T12:48:11.701Z,6.75
2022-12-03T12:51:16.395Z,6.05
2022-12-03T12:54:15.719Z,6.55
2022-12-03T12:57:18.279Z,7.28
2022-12-03T13:00:08.597Z,6.57
2022-12-03T13:03:05.609Z,6.38
2022-12-03T13:05:56.182Z,6.55
2022-12-03T13:08:48.516Z,6.57
2022-12-03T13:12:00.095Z,6.85
2022-12-03T13:14:49.901Z,6.70
2022-12-03T13:17:39.492Z,6.47
2022-12-03T13:20:29.740Z,6.45
2022-12-03T13:23:29.867Z,6.43
2022-12-03T13:26:39.056Z,6.45
2022-12-03T13:29:29.620Z,6.60
2022-12-03T13:32:25.469Z,7.18
2022-12-03T13:35:27.075Z,6.72
2022-12-03T13:38:19.401Z,6.40
2022-12-03T13:41:33.851Z,6.93
2022-12-03T13:44:23.487Z,6.72
2022-12-03T13:47:31.055Z,6.30
2022-12-03T13:50:42.030Z,6.60
2022-12-03T13:53:38.029Z,6.30
2022-12-03T13:56:34.296Z,6.55
2022-12-03T13:59:26.295Z,6.78
2022-12-03T14:02:16.463Z,6.95
2022-12-03T14:05:06.262Z,5.88
2022-12-03T14:07:56.098Z,6.15
2022-12-03T14:10:45.927Z,6.30
2022-12-03T14:13:35.818Z,6.53
2022-12-03T14:16:25.716Z,6.50
2022-12-03T14:19:15.508Z,6.57
2022-12-03T14:22:08.010Z,7.25
2022-12-03T14:24:58.173Z,6.15
2022-12-03T14:27:48.206Z,6.55
2022-12-03T14:30:38.666Z,6.53
2022-12-03T14:33:28.123Z,6.32
2022-12-03T14:36:17.793Z,6.45
2022-12-03T14:39:07.710Z,6.90
2022-12-03T14:42:15.983Z,6.63
2022-12-03T14:45:05.631Z,6.95
2022-12-03T14:47:55.880Z,6.30
2022-12-03T14:50:47.826Z,6.00
2022-12-03T14:53:37.336Z,6.95
2022-12-03T14:56:27.029Z,6.28
2022-12-03T14:59:16.746Z,6.53
2022-12-03T15:02:06.479Z,6.70
2022-12-03T15:04:55.993Z,6.80
2022-12-03T15:07:46.056Z,7.00
2022-12-03T15:10:35.568Z,6.78
2022-12-03T15:13:25.168Z,6.57
2022-12-03T15:16:14.888Z,6.85
2022-12-03T15:19:04.524Z,7.20
2022-12-03T15:21:54.298Z,7.30
2022-12-03T15:24:43.706Z,6.70
2022-12-03T15:27:33.476Z,6.55
2022-12-03T15:30:23.246Z,6.68
2022-12-03T15:33:13.301Z,7.00
2022-12-03T15:36:02.745Z,7.28
2022-12-03T15:38:52.296Z,7.22
2022-12-03T15:41:43.706Z,7.07
2022-12-03T15:44:33.490Z,6.63
2022-12-03T15:47:23.322Z,5.93
2022-12-03T15:50:15.329Z,7.95
2022-12-03T15:53:04.935Z,18.27
2022-12-03T15:55:54.466Z,37.83
2022-12-03T15:58:44.356Z,54.42
2022-12-03T16:01:34.169Z,50.03
2022-12-03T16:04:23.830Z,58.65
2022-12-03T16:07:13.501Z,63.65
2022-12-03T16:10:05.961Z,77.30
2022-12-03T16:12:55.634Z,67.97
2022-12-03T16:15:45.308Z,65.30
2022-12-03T16:18:34.779Z,93.38
2022-12-03T16:21:26.985Z,130.38
2022-12-03T16:24:17.088Z,125.65
2022-12-03T16:27:06.593Z,120.32
2022-12-03T16:29:57.863Z,172.43
2022-12-03T16:32:47.742Z,139.05
2022-12-03T16:35:37.272Z,130.30
2022-12-03T16:38:26.651Z,113.40
2022-12-03T16:41:16.265Z,119.13
2022-12-03T16:44:06.426Z,115.32
2022-12-03T16:46:56.369Z,112.78
2022-12-03T16:49:46.136Z,110.78
2022-12-03T16:52:36.424Z,107.53
2022-12-03T16:55:26.073Z,98.10
2022-12-03T16:58:15.780Z,97.80
2022-12-03T17:01:05.534Z,100.10
2022-12-03T17:03:55.000Z,90.85
2022-12-03T17:06:44.421Z,84.88
2022-12-03T17:09:34.068Z,86.68
2022-12-03T17:12:25.360Z,88.53
2022-12-03T17:15:15.193Z,81.93
2022-12-03T17:18:07.272Z,83.40
2022-12-03T17:20:57.287Z,82.20
2022-12-03T17:23:49.888Z,77.10
2022-12-03T17:26:39.316Z,71.90
2022-12-03T17:29:28.992Z,76.57
2022-12-03T17:32:18.469Z,71.68
2022-12-03T17:35:08.750Z,69.05
2022-12-03T17:37:58.354Z,72.97
2022-12-03T17:40:47.974Z,73.72
2022-12-03T17:43:37.434Z,64.60
2022-12-03T17:46:27.022Z,67.20
2022-12-03T17:49:16.728Z,65.85
2022-12-03T17:52:06.499Z,60.88
2022-12-03T17:55:10.819Z,60.80
2022-12-03T17:58:02.499Z,63.08
2022-12-03T18:00:54.018Z,56.50
2022-12-03T18:03:46.635Z,55.72
2022-12-03T18:06:36.359Z,55.45
2022-12-03T18:09:26.034Z,55.47
2022-12-03T18:12:15.713Z,50.20
2022-12-03T18:15:05.580Z,52.05
2022-12-03T18:17:56.383Z,52.95
2022-12-03T18:20:45.898Z,49.13
2022-12-03T18:23:36.988Z,47.47
2022-12-03T18:26:27.198Z,49.03
2022-12-03T18:29:16.943Z,46.00
2022-12-03T18:32:15.952Z,46.90
2022-12-03T18:35:16.993Z,45.83
2022-12-03T18:38:06.917Z,43.40
2022-12-03T18:40:58.827Z,41.00
2022-12-03T18:43:48.231Z,41.28
2022-12-03T18:46:52.990Z,43.55
2022-12-03T18:49:44.231Z,38.45
2022-12-03T18:52:34.123Z,39.15
2022-12-03T18:55:23.812Z,40.60
2022-12-03T18:58:13.570Z,38.30
2022-12-03T19:01:03.010Z,36.42
2022-12-03T19:03:54.824Z,37.97
2022-12-03T19:06:44.406Z,38.00
2022-12-03T19:09:34.053Z,33.30
2022-12-03T19:12:23.462Z,35.35
2022-12-03T19:15:13.268Z,32.35
2022-12-03T19:18:02.838Z,32.95
2022-12-03T19:20:52.752Z,33.55
2022-12-03T19:23:58.898Z,33.20
2022-12-03T19:26:55.872Z,31.25
2022-12-03T19:29:45.554Z,31.05
2022-12-03T19:32:36.573Z,28.92
2022-12-03T19:35:26.257Z,30.30
2022-12-03T19:38:15.958Z,28.73
2022-12-03T19:41:14.617Z,27.20
2022-12-03T19:44:10.611Z,28.80
2022-12-03T19:47:00.673Z,25.80
2022-12-03T19:49:50.350Z,26.38
2022-12-03T19:52:39.887Z,26.85
2022-12-03T19:55:29.338Z,24.80
2022-12-03T19:58:19.419Z,25.52
2022-12-03T20:01:11.605Z,24.55
2022-12-03T20:04:03.904Z,24.27
2022-12-03T20:06:53.479Z,23.40
2022-12-03T20:09:43.172Z,23.83
2022-12-03T20:12:32.610Z,24.27
2022-12-03T20:15:22.046Z,21.67
2022-12-03T20:18:11.890Z,22.10
2022-12-03T20:21:04.806Z,21.50
2022-12-03T20:23:55.028Z,21.70
2022-12-03T20:26:45.225Z,21.25
2022-12-03T20:29:34.774Z,21.48
2022-12-03T20:32:24.295Z,22.83
2022-12-03T20:35:13.805Z,20.90
2022-12-03T20:38:03.587Z,22.52
2022-12-03T20:40:53.091Z,19.95
2022-12-03T20:43:43.010Z,19.60
2022-12-03T20:46:33.769Z,20.08
2022-12-03T20:49:23.520Z,18.83
2022-12-03T20:52:13.171Z,19.27
2022-12-03T20:55:02.907Z,18.80
2022-12-03T20:57:52.799Z,19.15
2022-12-03T21:00:42.335Z,17.65
2022-12-03T21:03:31.647Z,17.45
2022-12-03T21:06:22.967Z,18.27
2022-12-03T21:09:13.653Z,18.60
2022-12-03T21:12:03.131Z,15.85
2022-12-03T21:14:52.931Z,16.50
2022-12-03T21:17:42.780Z,15.65
2022-12-03T21:20:32.936Z,17.80
2022-12-03T21:23:22.588Z,16.05
2022-12-03T21:26:15.677Z,15.65
2022-12-03T21:29:05.471Z,14.75
2022-12-03T21:31:55.411Z,15.77
2022-12-03T21:34:45.652Z,15.43
2022-12-03T21:37:35.892Z,16.17
2022-12-03T21:40:25.551Z,14.50
2022-12-03T21:43:15.140Z,15.20
2022-12-03T21:47:11.892Z,14.85
2022-12-03T21:49:20.594Z,13.82
2022-12-03T21:52:11.331Z,13.65
2022-12-03T21:55:01.494Z,15.63
2022-12-03T21:57:51.072Z,14.20
2022-12-03T22:00:40.913Z,14.45
2022-12-03T22:03:30.314Z,14.48
2022-12-03T22:06:20.772Z,13.13
2022-12-03T22:09:10.234Z,12.90
2022-12-03T22:12:01.919Z,13.57
2022-12-03T22:14:51.243Z,12.43
2022-12-03T22:17:40.730Z,13.15
2022-12-03T22:20:30.167Z,12.98
2022-12-03T22:23:19.989Z,12.23
2022-12-03T22:26:13.850Z,12.95
2022-12-03T22:29:04.009Z,12.73
2022-12-03T22:31:53.649Z,11.73
2022-12-03T22:34:46.490Z,12.20
2022-12-03T22:37:36.170Z,12.02
2022-12-03T22:40:25.949Z,11.65
2022-12-03T22:43:15.551Z,11.70
2022-12-03T22:46:07.155Z,11.68
2022-12-03T22:48:58.431Z,13.00
2022-12-03T22:51:50.110Z,11.63
2022-12-03T22:54:39.866Z,11.20
2022-12-03T22:57:29.727Z,10.60
2022-12-03T23:00:30.972Z,10.82
2022-12-03T23:03:21.444Z,11.23
2022-12-03T23:06:13.089Z,11.13
2022-12-03T23:09:03.064Z,10.45
2022-12-03T23:11:52.869Z,10.23
2022-12-03T23:14:42.501Z,10.07
2022-12-03T23:17:31.925Z,9.98
2022-12-03T23:20:21.701Z,9.75
2022-12-03T23:23:11.629Z,8.68
2022-12-03T23:26:09.442Z,8.55
2022-12-03T23:28:59.133Z,8.45
2022-12-03T23:31:48.789Z,9.25
2022-12-03T23:34:38.446Z,9.18
2022-12-03T23:37:28.247Z,8.55
2022-12-03T23:40:17.884Z,9.25
2022-12-03T23:43:07.851Z,8.60
2022-12-03T23:46:05.248Z,8.95
2022-12-03T23:48:54.989Z,8.65
2022-12-03T23:51:44.750Z,9.15
2022-12-03T23:54:35.468Z,7.70
2022-12-03T23:57:25.413Z,8.77
